sensor_id;sensor_type;location;lat;lon;timestamp;temperature;humidity
67868;SHT31;54672;46.096;14.470;2023-11-21T00:00:13;6.92;95.32
67868;SHT31;54672;46.096;14.470;2023-11-21T00:02:39;6.92;95.54
67868;SHT31;54672;46.096;14.470;2023-11-21T00:05:07;6.92;95.42
67868;SHT31;54672;46.096;14.470;2023-11-21T00:07:33;6.89;95.17
67868;SHT31;54672;46.096;14.470;2023-11-21T00:09:59;6.75;96.28
67868;SHT31;54672;46.096;14.470;2023-11-21T00:12:24;6.83;97.04
67868;SHT31;54672;46.096;14.470;2023-11-21T00:14:50;6.61;97.37
67868;SHT31;54672;46.096;14.470;2023-11-21T00:17:15;6.73;97.16
67868;SHT31;54672;46.096;14.470;2023-11-21T00:19:41;6.71;97.68
67868;SHT31;54672;46.096;14.470;2023-11-21T00:22:08;6.70;97.36
67868;SHT31;54672;46.096;14.470;2023-11-21T00:24:34;6.73;97.64
67868;SHT31;54672;46.096;14.470;2023-11-21T00:27:00;6.78;97.51
67868;SHT31;54672;46.096;14.470;2023-11-21T00:29:25;6.73;98.05
67868;SHT31;54672;46.096;14.470;2023-11-21T00:31:51;6.75;98.38
67868;SHT31;54672;46.096;14.470;2023-11-21T00:34:16;6.74;98.70
67868;SHT31;54672;46.096;14.470;2023-11-21T00:36:42;6.84;97.76
67868;SHT31;54672;46.096;14.470;2023-11-21T00:39:07;6.77;97.85
67868;SHT31;54672;46.096;14.470;2023-11-21T00:41:33;6.80;97.90
67868;SHT31;54672;46.096;14.470;2023-11-21T00:44:00;6.84;97.80
67868;SHT31;54672;46.096;14.470;2023-11-21T00:46:26;6.78;98.07
67868;SHT31;54672;46.096;14.470;2023-11-21T00:48:54;6.80;98.05
67868;SHT31;54672;46.096;14.470;2023-11-21T00:51:20;7.02;96.78
67868;SHT31;54672;46.096;14.470;2023-11-21T00:53:46;6.96;97.18
67868;SHT31;54672;46.096;14.470;2023-11-21T00:56:13;6.75;98.38
67868;SHT31;54672;46.096;14.470;2023-11-21T00:58:40;6.50;99.66
67868;SHT31;54672;46.096;14.470;2023-11-21T01:01:11;6.55;99.18
67868;SHT31;54672;46.096;14.470;2023-11-21T01:03:37;6.60;99.09
67868;SHT31;54672;46.096;14.470;2023-11-21T01:06:02;6.54;99.36
67868;SHT31;54672;46.096;14.470;2023-11-21T01:08:28;6.30;99.99
67868;SHT31;54672;46.096;14.470;2023-11-21T01:10:54;6.24;99.99
67868;SHT31;54672;46.096;14.470;2023-11-21T01:13:20;6.13;99.99
67868;SHT31;54672;46.096;14.470;2023-11-21T01:15:46;6.15;99.99
67868;SHT31;54672;46.096;14.470;2023-11-21T01:18:11;6.26;99.99
67868;SHT31;54672;46.096;14.470;2023-11-21T01:20:37;6.29;99.99
67868;SHT31;54672;46.096;14.470;2023-11-21T01:23:02;6.13;99.99
67868;SHT31;54672;46.096;14.470;2023-11-21T01:25:28;6.13;99.99
67868;SHT31;54672;46.096;14.470;2023-11-21T01:27:53;6.13;99.99
67868;SHT31;54672;46.096;14.470;2023-11-21T01:30:18;6.15;99.99
67868;SHT31;54672;46.096;14.470;2023-11-21T01:32:44;6.13;99.99
67868;SHT31;54672;46.096;14.470;2023-11-21T01:35:10;6.10;99.99
67868;SHT31;54672;46.096;14.470;2023-11-21T01:37:36;6.23;99.99
67868;SHT31;54672;46.096;14.470;2023-11-21T01:40:02;6.33;99.99
67868;SHT31;54672;46.096;14.470;2023-11-21T01:42:31;6.34;99.99
67868;SHT31;54672;46.096;14.470;2023-11-21T01:44:56;6.37;99.99
67868;SHT31;54672;46.096;14.470;2023-11-21T01:47:21;6.36;99.99
67868;SHT31;54672;46.096;14.470;2023-11-21T01:49:47;6.37;99.99
67868;SHT31;54672;46.096;14.470;2023-11-21T01:52:13;6.43;99.99
67868;SHT31;54672;46.096;14.470;2023-11-21T01:54:40;6.44;99.99
67868;SHT31;54672;46.096;14.470;2023-11-21T01:57:06;6.48;99.73
67868;SHT31;54672;46.096;14.470;2023-11-21T01:59:37;6.48;99.99
67868;SHT31;54672;46.096;14.470;2023-11-21T02:02:06;6.50;99.99
67868;SHT31;54672;46.096;14.470;2023-11-21T02:04:36;6.55;99.75
67868;SHT31;54672;46.096;14.470;2023-11-21T02:07:02;6.61;99.75
67868;SHT31;54672;46.096;14.470;2023-11-21T02:09:31;6.57;99.16
67868;SHT31;54672;46.096;14.470;2023-11-21T02:11:58;6.54;99.38
67868;SHT31;54672;46.096;14.470;2023-11-21T02:14:25;6.58;99.44
67868;SHT31;54672;46.096;14.470;2023-11-21T02:16:52;6.60;99.54
67868;SHT31;54672;46.096;14.470;2023-11-21T02:19:19;6.67;99.68
67868;SHT31;54672;46.096;14.470;2023-11-21T02:21:49;6.70;99.99
67868;SHT31;54672;46.096;14.470;2023-11-21T02:24:15;6.71;99.99
67868;SHT31;54672;46.096;14.470;2023-11-21T02:26:43;6.70;99.99
67868;SHT31;54672;46.096;14.470;2023-11-21T02:29:08;6.70;99.99
67868;SHT31;54672;46.096;14.470;2023-11-21T02:31:37;6.68;99.99
67868;SHT31;54672;46.096;14.470;2023-11-21T02:34:11;6.67;99.98
67868;SHT31;54672;46.096;14.470;2023-11-21T02:36:38;6.68;99.98
67868;SHT31;54672;46.096;14.470;2023-11-21T02:39:04;6.68;99.99
67868;SHT31;54672;46.096;14.470;2023-11-21T02:41:29;6.70;99.99
67868;SHT31;54672;46.096;14.470;2023-11-21T02:43:55;6.70;99.99
67868;SHT31;54672;46.096;14.470;2023-11-21T02:46:20;6.68;99.99
67868;SHT31;54672;46.096;14.470;2023-11-21T02:48:46;6.63;99.99
67868;SHT31;54672;46.096;14.470;2023-11-21T02:51:11;6.61;99.99
67868;SHT31;54672;46.096;14.470;2023-11-21T02:53:36;6.64;99.99
67868;SHT31;54672;46.096;14.470;2023-11-21T02:56:04;6.61;99.99
67868;SHT31;54672;46.096;14.470;2023-11-21T02:58:29;6.55;99.99
67868;SHT31;54672;46.096;14.470;2023-11-21T03:00:55;6.53;99.99
67868;SHT31;54672;46.096;14.470;2023-11-21T03:03:21;6.55;99.99
67868;SHT31;54672;46.096;14.470;2023-11-21T03:05:49;6.58;99.99
67868;SHT31;54672;46.096;14.470;2023-11-21T03:08:14;6.55;99.99
67868;SHT31;54672;46.096;14.470;2023-11-21T03:10:39;6.60;99.99
67868;SHT31;54672;46.096;14.470;2023-11-21T03:13:05;6.61;99.99
67868;SHT31;54672;46.096;14.470;2023-11-21T03:15:30;6.68;99.99
67868;SHT31;54672;46.096;14.470;2023-11-21T03:17:57;6.74;99.28
67868;SHT31;54672;46.096;14.470;2023-11-21T03:20:23;6.73;99.26
67868;SHT31;54672;46.096;14.470;2023-11-21T03:22:48;6.73;99.60
67868;SHT31;54672;46.096;14.470;2023-11-21T03:25:15;6.73;99.72
67868;SHT31;54672;46.096;14.470;2023-11-21T03:27:42;6.77;99.99
67868;SHT31;54672;46.096;14.470;2023-11-21T03:30:09;6.77;99.99
67868;SHT31;54672;46.096;14.470;2023-11-21T03:32:36;6.64;99.99
67868;SHT31;54672;46.096;14.470;2023-11-21T03:35:01;6.57;99.99
67868;SHT31;54672;46.096;14.470;2023-11-21T03:37:27;6.55;99.99
67868;SHT31;54672;46.096;14.470;2023-11-21T03:39:54;6.57;99.99
67868;SHT31;54672;46.096;14.470;2023-11-21T03:42:20;6.48;99.99
67868;SHT31;54672;46.096;14.470;2023-11-21T03:44:45;6.41;99.99
67868;SHT31;54672;46.096;14.470;2023-11-21T03:47:11;6.41;99.99
67868;SHT31;54672;46.096;14.470;2023-11-21T03:49:37;6.33;99.99
67868;SHT31;54672;46.096;14.470;2023-11-21T03:52:02;6.36;99.99
67868;SHT31;54672;46.096;14.470;2023-11-21T03:54:28;6.36;99.99
67868;SHT31;54672;46.096;14.470;2023-11-21T03:56:53;6.40;99.99
67868;SHT31;54672;46.096;14.470;2023-11-21T03:59:19;6.47;99.99
67868;SHT31;54672;46.096;14.470;2023-11-21T04:01:44;6.53;99.99
67868;SHT31;54672;46.096;14.470;2023-11-21T04:04:09;6.43;99.99
67868;SHT31;54672;46.096;14.470;2023-11-21T04:06:35;6.30;99.99
67868;SHT31;54672;46.096;14.470;2023-11-21T04:09:02;6.22;99.99
67868;SHT31;54672;46.096;14.470;2023-11-21T04:11:29;6.27;99.99
67868;SHT31;54672;46.096;14.470;2023-11-21T04:13:55;6.26;99.99
67868;SHT31;54672;46.096;14.470;2023-11-21T04:16:20;6.33;99.99
67868;SHT31;54672;46.096;14.470;2023-11-21T04:18:46;6.27;99.99
67868;SHT31;54672;46.096;14.470;2023-11-21T04:21:11;6.27;99.99
67868;SHT31;54672;46.096;14.470;2023-11-21T04:23:37;6.33;99.99
67868;SHT31;54672;46.096;14.470;2023-11-21T04:26:02;6.30;99.99
67868;SHT31;54672;46.096;14.470;2023-11-21T04:28:28;6.29;99.99
67868;SHT31;54672;46.096;14.470;2023-11-21T04:30:53;6.33;99.99
67868;SHT31;54672;46.096;14.470;2023-11-21T04:33:19;6.37;99.99
67868;SHT31;54672;46.096;14.470;2023-11-21T04:35:44;6.36;99.99
67868;SHT31;54672;46.096;14.470;2023-11-21T04:38:10;6.36;99.99
67868;SHT31;54672;46.096;14.470;2023-11-21T04:40:35;6.37;99.99
67868;SHT31;54672;46.096;14.470;2023-11-21T04:43:01;6.38;99.99
67868;SHT31;54672;46.096;14.470;2023-11-21T04:45:27;6.41;99.99
67868;SHT31;54672;46.096;14.470;2023-11-21T04:47:52;6.50;99.99
67868;SHT31;54672;46.096;14.470;2023-11-21T04:50:18;6.48;99.99
67868;SHT31;54672;46.096;14.470;2023-11-21T04:52:44;6.47;99.99
67868;SHT31;54672;46.096;14.470;2023-11-21T04:55:09;6.37;99.99
67868;SHT31;54672;46.096;14.470;2023-11-21T04:57:36;6.33;99.99
67868;SHT31;54672;46.096;14.470;2023-11-21T05:00:02;6.27;99.99
67868;SHT31;54672;46.096;14.470;2023-11-21T05:02:31;6.29;99.99
67868;SHT31;54672;46.096;14.470;2023-11-21T05:04:57;6.26;99.99
67868;SHT31;54672;46.096;14.470;2023-11-21T05:07:22;6.27;99.99
67868;SHT31;54672;46.096;14.470;2023-11-21T05:09:47;6.26;99.99
67868;SHT31;54672;46.096;14.470;2023-11-21T05:12:13;6.36;99.99
67868;SHT31;54672;46.096;14.470;2023-11-21T05:14:39;6.36;99.99
67868;SHT31;54672;46.096;14.470;2023-11-21T05:17:05;6.41;99.99
67868;SHT31;54672;46.096;14.470;2023-11-21T05:19:30;6.37;99.99
67868;SHT31;54672;46.096;14.470;2023-11-21T05:21:58;6.32;99.99
67868;SHT31;54672;46.096;14.470;2023-11-21T05:24:24;6.36;99.99
67868;SHT31;54672;46.096;14.470;2023-11-21T05:26:49;6.40;99.99
67868;SHT31;54672;46.096;14.470;2023-11-21T05:29:15;6.48;99.99
67868;SHT31;54672;46.096;14.470;2023-11-21T05:31:40;6.53;99.99
67868;SHT31;54672;46.096;14.470;2023-11-21T05:34:06;6.55;99.99
67868;SHT31;54672;46.096;14.470;2023-11-21T05:36:31;6.63;99.99
67868;SHT31;54672;46.096;14.470;2023-11-21T05:38:57;6.63;99.99
67868;SHT31;54672;46.096;14.470;2023-11-21T05:41:22;6.58;99.99
67868;SHT31;54672;46.096;14.470;2023-11-21T05:43:48;6.61;99.99
67868;SHT31;54672;46.096;14.470;2023-11-21T05:46:14;6.58;99.99
67868;SHT31;54672;46.096;14.470;2023-11-21T05:48:39;6.61;99.99
67868;SHT31;54672;46.096;14.470;2023-11-21T05:51:06;6.60;99.99
67868;SHT31;54672;46.096;14.470;2023-11-21T05:53:31;6.60;99.99
67868;SHT31;54672;46.096;14.470;2023-11-21T05:55:57;6.48;99.99
67868;SHT31;54672;46.096;14.470;2023-11-21T05:58:22;6.57;99.99
67868;SHT31;54672;46.096;14.470;2023-11-21T06:00:49;6.55;99.99
67868;SHT31;54672;46.096;14.470;2023-11-21T06:03:14;6.60;99.99
67868;SHT31;54672;46.096;14.470;2023-11-21T06:05:39;6.53;99.99
67868;SHT31;54672;46.096;14.470;2023-11-21T06:08:05;6.40;99.99
67868;SHT31;54672;46.096;14.470;2023-11-21T06:10:31;6.43;99.99
67868;SHT31;54672;46.096;14.470;2023-11-21T06:12:57;6.36;99.99
67868;SHT31;54672;46.096;14.470;2023-11-21T06:15:23;6.43;99.99
67868;SHT31;54672;46.096;14.470;2023-11-21T06:17:49;6.51;99.99
67868;SHT31;54672;46.096;14.470;2023-11-21T06:20:17;6.51;99.99
67868;SHT31;54672;46.096;14.470;2023-11-21T06:22:45;6.57;99.99
67868;SHT31;54672;46.096;14.470;2023-11-21T06:25:11;6.57;99.99
67868;SHT31;54672;46.096;14.470;2023-11-21T06:27:45;6.54;99.99
67868;SHT31;54672;46.096;14.470;2023-11-21T06:30:12;6.58;99.99
67868;SHT31;54672;46.096;14.470;2023-11-21T06:32:39;6.55;99.99
67868;SHT31;54672;46.096;14.470;2023-11-21T06:35:05;6.47;99.99
67868;SHT31;54672;46.096;14.470;2023-11-21T06:37:32;6.50;99.99
67868;SHT31;54672;46.096;14.470;2023-11-21T06:39:58;6.53;99.99
67868;SHT31;54672;46.096;14.470;2023-11-21T06:42:27;6.55;99.99
67868;SHT31;54672;46.096;14.470;2023-11-21T06:44:54;6.48;99.99
67868;SHT31;54672;46.096;14.470;2023-11-21T06:47:22;6.43;99.99
67868;SHT31;54672;46.096;14.470;2023-11-21T06:49:50;6.54;99.99
67868;SHT31;54672;46.096;14.470;2023-11-21T06:52:16;6.63;99.99
67868;SHT31;54672;46.096;14.470;2023-11-21T06:54:41;6.71;99.99
67868;SHT31;54672;46.096;14.470;2023-11-21T06:57:07;6.78;99.99
67868;SHT31;54672;46.096;14.470;2023-11-21T06:59:33;6.85;99.99
67868;SHT31;54672;46.096;14.470;2023-11-21T07:01:58;6.92;99.99
67868;SHT31;54672;46.096;14.470;2023-11-21T07:04:24;6.94;99.99
67868;SHT31;54672;46.096;14.470;2023-11-21T07:06:51;6.99;99.99
67868;SHT31;54672;46.096;14.470;2023-11-21T07:09:17;6.85;99.99
67868;SHT31;54672;46.096;14.470;2023-11-21T07:11:42;6.78;99.99
67868;SHT31;54672;46.096;14.470;2023-11-21T07:14:07;6.87;99.99
67868;SHT31;54672;46.096;14.470;2023-11-21T07:16:37;6.98;99.99
67868;SHT31;54672;46.096;14.470;2023-11-21T07:19:06;7.01;99.99
67868;SHT31;54672;46.096;14.470;2023-11-21T07:21:32;6.92;99.99
67868;SHT31;54672;46.096;14.470;2023-11-21T07:24:02;6.88;99.99
67868;SHT31;54672;46.096;14.470;2023-11-21T07:26:27;6.94;99.99
67868;SHT31;54672;46.096;14.470;2023-11-21T07:28:53;6.89;99.99
67868;SHT31;54672;46.096;14.470;2023-11-21T07:31:19;6.96;99.99
67868;SHT31;54672;46.096;14.470;2023-11-21T07:33:47;7.20;99.99
67868;SHT31;54672;46.096;14.470;2023-11-21T07:36:14;7.12;99.99
67868;SHT31;54672;46.096;14.470;2023-11-21T07:38:40;6.98;99.99
67868;SHT31;54672;46.096;14.470;2023-11-21T07:41:05;6.96;99.99
67868;SHT31;54672;46.096;14.470;2023-11-21T07:43:34;6.88;99.99
67868;SHT31;54672;46.096;14.470;2023-11-21T07:46:01;6.83;99.99
67868;SHT31;54672;46.096;14.470;2023-11-21T07:48:29;6.78;99.99
67868;SHT31;54672;46.096;14.470;2023-11-21T07:50:54;6.71;99.99
67868;SHT31;54672;46.096;14.470;2023-11-21T07:53:19;6.73;99.99
67868;SHT31;54672;46.096;14.470;2023-11-21T07:55:45;6.70;99.99
67868;SHT31;54672;46.096;14.470;2023-11-21T07:58:12;6.74;99.99
67868;SHT31;54672;46.096;14.470;2023-11-21T08:00:38;6.70;99.99
67868;SHT31;54672;46.096;14.470;2023-11-21T08:03:04;6.74;99.99
67868;SHT31;54672;46.096;14.470;2023-11-21T08:05:31;6.71;99.99
67868;SHT31;54672;46.096;14.470;2023-11-21T08:07:56;6.75;99.99
67868;SHT31;54672;46.096;14.470;2023-11-21T08:10:21;6.77;99.99
67868;SHT31;54672;46.096;14.470;2023-11-21T08:12:47;6.88;99.99
67868;SHT31;54672;46.096;14.470;2023-11-21T08:15:14;7.06;99.99
67868;SHT31;54672;46.096;14.470;2023-11-21T08:17:39;7.20;99.99
67868;SHT31;54672;46.096;14.470;2023-11-21T08:20:05;7.30;99.99
67868;SHT31;54672;46.096;14.470;2023-11-21T08:22:31;7.32;99.99
67868;SHT31;54672;46.096;14.470;2023-11-21T08:24:57;7.36;99.99
67868;SHT31;54672;46.096;14.470;2023-11-21T08:27:23;7.14;99.99
67868;SHT31;54672;46.096;14.470;2023-11-21T08:29:48;7.19;99.99
67868;SHT31;54672;46.096;14.470;2023-11-21T08:32:14;7.16;99.99
67868;SHT31;54672;46.096;14.470;2023-11-21T08:34:40;7.14;99.99
67868;SHT31;54672;46.096;14.470;2023-11-21T08:37:08;7.11;99.99
67868;SHT31;54672;46.096;14.470;2023-11-21T08:39:33;7.16;99.99
67868;SHT31;54672;46.096;14.470;2023-11-21T08:41:59;7.18;99.99
67868;SHT31;54672;46.096;14.470;2023-11-21T08:44:24;7.23;99.99
67868;SHT31;54672;46.096;14.470;2023-11-21T08:46:50;7.27;99.99
67868;SHT31;54672;46.096;14.470;2023-11-21T08:49:15;7.29;99.99
67868;SHT31;54672;46.096;14.470;2023-11-21T08:51:41;7.29;99.99
67868;SHT31;54672;46.096;14.470;2023-11-21T08:54:06;7.39;99.99
67868;SHT31;54672;46.096;14.470;2023-11-21T08:56:36;7.47;99.99
67868;SHT31;54672;46.096;14.470;2023-11-21T08:59:02;7.50;99.99
67868;SHT31;54672;46.096;14.470;2023-11-21T09:01:31;7.49;99.99
67868;SHT31;54672;46.096;14.470;2023-11-21T09:03:57;7.50;99.99
67868;SHT31;54672;46.096;14.470;2023-11-21T09:06:23;7.53;99.99
67868;SHT31;54672;46.096;14.470;2023-11-21T09:08:49;7.57;99.99
67868;SHT31;54672;46.096;14.470;2023-11-21T09:11:14;7.67;99.99
67868;SHT31;54672;46.096;14.470;2023-11-21T09:13:40;7.71;99.99
67868;SHT31;54672;46.096;14.470;2023-11-21T09:16:05;7.74;99.99
67868;SHT31;54672;46.096;14.470;2023-11-21T09:18:31;7.81;99.99
67868;SHT31;54672;46.096;14.470;2023-11-21T09:20:57;7.74;99.99
67868;SHT31;54672;46.096;14.470;2023-11-21T09:23:22;7.77;99.99
67868;SHT31;54672;46.096;14.470;2023-11-21T09:25:47;7.87;99.99
67868;SHT31;54672;46.096;14.470;2023-11-21T09:28:15;7.99;99.99
67868;SHT31;54672;46.096;14.470;2023-11-21T09:30:41;7.80;99.99
67868;SHT31;54672;46.096;14.470;2023-11-21T09:33:06;7.84;99.99
67868;SHT31;54672;46.096;14.470;2023-11-21T09:35:32;7.84;99.99
67868;SHT31;54672;46.096;14.470;2023-11-21T09:37:57;7.88;99.99
67868;SHT31;54672;46.096;14.470;2023-11-21T09:40:23;7.81;99.99
67868;SHT31;54672;46.096;14.470;2023-11-21T09:42:56;7.94;99.99
67868;SHT31;54672;46.096;14.470;2023-11-21T09:45:26;7.93;99.99
67868;SHT31;54672;46.096;14.470;2023-11-21T09:47:57;8.01;99.99
67868;SHT31;54672;46.096;14.470;2023-11-21T09:50:23;8.05;99.99
67868;SHT31;54672;46.096;14.470;2023-11-21T09:55:21;8.04;99.99
67868;SHT31;54672;46.096;14.470;2023-11-21T09:57:47;8.07;99.99
67868;SHT31;54672;46.096;14.470;2023-11-21T10:00:14;8.04;99.99
67868;SHT31;54672;46.096;14.470;2023-11-21T10:02:43;8.07;99.99
67868;SHT31;54672;46.096;14.470;2023-11-21T10:05:09;8.02;99.99
67868;SHT31;54672;46.096;14.470;2023-11-21T10:07:39;8.05;99.99
67868;SHT31;54672;46.096;14.470;2023-11-21T10:10:07;8.04;99.99
67868;SHT31;54672;46.096;14.470;2023-11-21T10:12:35;8.12;99.99
67868;SHT31;54672;46.096;14.470;2023-11-21T10:15:02;8.12;99.99
67868;SHT31;54672;46.096;14.470;2023-11-21T10:17:28;8.14;99.99
67868;SHT31;54672;46.096;14.470;2023-11-21T10:20:02;8.22;99.99
67868;SHT31;54672;46.096;14.470;2023-11-21T10:22:29;8.20;99.99
67868;SHT31;54672;46.096;14.470;2023-11-21T10:24:54;8.20;99.99
67868;SHT31;54672;46.096;14.470;2023-11-21T10:27:20;8.21;99.99
67868;SHT31;54672;46.096;14.470;2023-11-21T10:29:45;8.22;99.99
67868;SHT31;54672;46.096;14.470;2023-11-21T10:32:12;8.18;99.99
67868;SHT31;54672;46.096;14.470;2023-11-21T10:34:37;8.32;99.99
67868;SHT31;54672;46.096;14.470;2023-11-21T10:37:12;8.28;99.87
67868;SHT31;54672;46.096;14.470;2023-11-21T10:39:39;8.34;99.59
67868;SHT31;54672;46.096;14.470;2023-11-21T10:42:08;8.29;99.99
67868;SHT31;54672;46.096;14.470;2023-11-21T10:44:34;8.38;99.59
67868;SHT31;54672;46.096;14.470;2023-11-21T10:47:00;8.44;99.97
67868;SHT31;54672;46.096;14.470;2023-11-21T10:49:26;8.36;99.94
67868;SHT31;54672;46.096;14.470;2023-11-21T10:51:55;8.62;99.99
67868;SHT31;54672;46.096;14.470;2023-11-21T10:54:22;8.70;99.45
67868;SHT31;54672;46.096;14.470;2023-11-21T10:56:49;8.59;98.84
67868;SHT31;54672;46.096;14.470;2023-11-21T10:59:17;8.55;98.69
67868;SHT31;54672;46.096;14.470;2023-11-21T11:01:45;8.76;98.78
67868;SHT31;54672;46.096;14.470;2023-11-21T11:04:12;8.83;98.74
67868;SHT31;54672;46.096;14.470;2023-11-21T11:06:54;8.72;98.40
67868;SHT31;54672;46.096;14.470;2023-11-21T11:09:20;8.75;98.34
67868;SHT31;54672;46.096;14.470;2023-11-21T11:11:46;8.72;98.28
67868;SHT31;54672;46.096;14.470;2023-11-21T11:14:12;8.86;98.22
67868;SHT31;54672;46.096;14.470;2023-11-21T11:16:41;8.94;97.76
67868;SHT31;54672;46.096;14.470;2023-11-21T11:19:08;9.07;96.92
67868;SHT31;54672;46.096;14.470;2023-11-21T11:32:55;8.94;96.92
67868;SHT31;54672;46.096;14.470;2023-11-21T11:38:08;8.80;97.17
67868;SHT31;54672;46.096;14.470;2023-11-21T11:40:40;8.72;98.60
67868;SHT31;54672;46.096;14.470;2023-11-21T11:43:07;8.72;98.47
67868;SHT31;54672;46.096;14.470;2023-11-21T11:45:33;8.75;98.04
67868;SHT31;54672;46.096;14.470;2023-11-21T11:48:02;8.70;98.36
67868;SHT31;54672;46.096;14.470;2023-11-21T11:50:29;8.77;97.54
67868;SHT31;54672;46.096;14.470;2023-11-21T11:52:57;8.80;97.67
67868;SHT31;54672;46.096;14.470;2023-11-21T11:55:36;9.04;95.99
67868;SHT31;54672;46.096;14.470;2023-11-21T11:58:05;9.13;95.88
67868;SHT31;54672;46.096;14.470;2023-11-21T12:03:01;9.14;95.23
67868;SHT31;54672;46.096;14.470;2023-11-21T12:05:29;9.18;96.43
67868;SHT31;54672;46.096;14.470;2023-11-21T12:08:01;9.27;95.52
67868;SHT31;54672;46.096;14.470;2023-11-21T12:10:31;9.27;94.63
67868;SHT31;54672;46.096;14.470;2023-11-21T12:15:22;9.46;95.10
67868;SHT31;54672;46.096;14.470;2023-11-21T12:17:49;9.61;92.72
67868;SHT31;54672;46.096;14.470;2023-11-21T12:20:19;9.58;92.84
67868;SHT31;54672;46.096;14.470;2023-11-21T12:22:53;9.59;92.98
67868;SHT31;54672;46.096;14.470;2023-11-21T12:25:20;9.54;92.99
67868;SHT31;54672;46.096;14.470;2023-11-21T12:27:50;9.41;92.97
67868;SHT31;54672;46.096;14.470;2023-11-21T12:30:23;9.45;94.16
67868;SHT31;54672;46.096;14.470;2023-11-21T12:32:53;9.42;94.92
67868;SHT31;54672;46.096;14.470;2023-11-21T12:35:21;9.46;94.53
67868;SHT31;54672;46.096;14.470;2023-11-21T12:37:47;9.54;93.96
67868;SHT31;54672;46.096;14.470;2023-11-21T12:40:13;9.51;94.36
67868;SHT31;54672;46.096;14.470;2023-11-21T12:42:46;9.46;94.09
67868;SHT31;54672;46.096;14.470;2023-11-21T12:47:49;9.42;93.31
67868;SHT31;54672;46.096;14.470;2023-11-21T12:50:25;9.41;93.67
67868;SHT31;54672;46.096;14.470;2023-11-21T12:52:54;9.31;93.66
67868;SHT31;54672;46.096;14.470;2023-11-21T12:55:23;9.28;94.17
67868;SHT31;54672;46.096;14.470;2023-11-21T12:57:50;9.21;94.55
67868;SHT31;54672;46.096;14.470;2023-11-21T13:00:33;9.31;94.63
67868;SHT31;54672;46.096;14.470;2023-11-21T13:03:03;9.39;94.44
67868;SHT31;54672;46.096;14.470;2023-11-21T13:05:30;9.48;93.87
67868;SHT31;54672;46.096;14.470;2023-11-21T13:07:57;9.51;93.33
67868;SHT31;54672;46.096;14.470;2023-11-21T13:10:24;9.41;93.47
67868;SHT31;54672;46.096;14.470;2023-11-21T13:12:57;9.45;93.83
67868;SHT31;54672;46.096;14.470;2023-11-21T13:15:24;9.42;94.39
67868;SHT31;54672;46.096;14.470;2023-11-21T13:17:50;9.44;93.91
67868;SHT31;54672;46.096;14.470;2023-11-21T13:20:16;9.46;94.19
67868;SHT31;54672;46.096;14.470;2023-11-21T13:25:11;9.27;93.66
67868;SHT31;54672;46.096;14.470;2023-11-21T13:27:37;9.17;94.60
67868;SHT31;54672;46.096;14.470;2023-11-21T13:30:02;9.31;94.64
67868;SHT31;54672;46.096;14.470;2023-11-21T13:32:29;9.42;93.78
67868;SHT31;54672;46.096;14.470;2023-11-21T13:34:54;9.32;93.98
67868;SHT31;54672;46.096;14.470;2023-11-21T13:37:20;9.32;93.98
67868;SHT31;54672;46.096;14.470;2023-11-21T13:39:46;9.35;92.96
67868;SHT31;54672;46.096;14.470;2023-11-21T13:42:15;9.32;93.25
67868;SHT31;54672;46.096;14.470;2023-11-21T13:44:42;9.30;94.01
67868;SHT31;54672;46.096;14.470;2023-11-21T13:47:12;9.23;94.76
67868;SHT31;54672;46.096;14.470;2023-11-21T13:49:37;9.38;93.89
67868;SHT31;54672;46.096;14.470;2023-11-21T13:52:06;9.32;93.45
67868;SHT31;54672;46.096;14.470;2023-11-21T13:54:32;9.31;93.74
67868;SHT31;54672;46.096;14.470;2023-11-21T13:56:58;9.30;94.06
67868;SHT31;54672;46.096;14.470;2023-11-21T13:59:25;9.28;93.85
67868;SHT31;54672;46.096;14.470;2023-11-21T14:01:53;9.25;94.09
67868;SHT31;54672;46.096;14.470;2023-11-21T14:04:19;9.20;94.44
67868;SHT31;54672;46.096;14.470;2023-11-21T14:06:49;9.20;95.69
67868;SHT31;54672;46.096;14.470;2023-11-21T14:09:17;9.10;96.42
67868;SHT31;54672;46.096;14.470;2023-11-21T14:12:01;9.01;97.42
67868;SHT31;54672;46.096;14.470;2023-11-21T14:14:31;8.94;97.95
67868;SHT31;54672;46.096;14.470;2023-11-21T14:16:57;8.91;98.09
67868;SHT31;54672;46.096;14.470;2023-11-21T14:19:24;8.94;98.16
67868;SHT31;54672;46.096;14.470;2023-11-21T14:21:53;8.93;98.18
67868;SHT31;54672;46.096;14.470;2023-11-21T14:24:19;8.93;98.50
67868;SHT31;54672;46.096;14.470;2023-11-21T14:26:46;8.81;98.77
67868;SHT31;54672;46.096;14.470;2023-11-21T14:29:12;8.81;98.81
67868;SHT31;54672;46.096;14.470;2023-11-21T14:31:43;8.79;99.24
67868;SHT31;54672;46.096;14.470;2023-11-21T14:34:09;8.81;99.16
67868;SHT31;54672;46.096;14.470;2023-11-21T14:36:37;8.81;99.16
67868;SHT31;54672;46.096;14.470;2023-11-21T14:39:04;8.79;99.44
67868;SHT31;54672;46.096;14.470;2023-11-21T14:41:36;8.77;99.38
67868;SHT31;54672;46.096;14.470;2023-11-21T14:44:03;8.73;99.35
67868;SHT31;54672;46.096;14.470;2023-11-21T14:46:29;8.65;98.95
67868;SHT31;54672;46.096;14.470;2023-11-21T14:48:55;8.65;99.07
67868;SHT31;54672;46.096;14.470;2023-11-21T14:51:58;8.65;99.30
67868;SHT31;54672;46.096;14.470;2023-11-21T14:54:33;8.62;99.34
67868;SHT31;54672;46.096;14.470;2023-11-21T14:57:04;8.53;99.54
67868;SHT31;54672;46.096;14.470;2023-11-21T14:59:35;8.53;99.44
67868;SHT31;54672;46.096;14.470;2023-11-21T15:02:00;8.49;99.41
67868;SHT31;54672;46.096;14.470;2023-11-21T15:04:39;8.45;99.43
67868;SHT31;54672;46.096;14.470;2023-11-21T15:07:05;8.46;99.63
67868;SHT31;54672;46.096;14.470;2023-11-21T15:09:31;8.44;99.60
67868;SHT31;54672;46.096;14.470;2023-11-21T15:11:57;8.38;99.61
67868;SHT31;54672;46.096;14.470;2023-11-21T15:14:29;8.34;99.67
67868;SHT31;54672;46.096;14.470;2023-11-21T15:16:57;8.31;99.72
67868;SHT31;54672;46.096;14.470;2023-11-21T15:19:25;8.28;99.72
67868;SHT31;54672;46.096;14.470;2023-11-21T15:21:51;8.29;99.72
67868;SHT31;54672;46.096;14.470;2023-11-21T15:24:17;8.28;99.73
67868;SHT31;54672;46.096;14.470;2023-11-21T15:26:42;8.26;99.85
67868;SHT31;54672;46.096;14.470;2023-11-21T15:29:08;8.24;99.74
67868;SHT31;54672;46.096;14.470;2023-11-21T15:31:34;8.21;99.78
67868;SHT31;54672;46.096;14.470;2023-11-21T15:34:01;8.21;99.96
67868;SHT31;54672;46.096;14.470;2023-11-21T15:36:26;8.11;99.99
67868;SHT31;54672;46.096;14.470;2023-11-21T15:38:53;8.14;99.99
67868;SHT31;54672;46.096;14.470;2023-11-21T15:41:19;8.09;99.99
67868;SHT31;54672;46.096;14.470;2023-11-21T15:43:44;7.99;99.99
67868;SHT31;54672;46.096;14.470;2023-11-21T15:46:10;7.99;99.99
67868;SHT31;54672;46.096;14.470;2023-11-21T15:48:36;7.97;99.99
67868;SHT31;54672;46.096;14.470;2023-11-21T15:51:04;7.94;99.99
67868;SHT31;54672;46.096;14.470;2023-11-21T15:53:30;7.94;99.99